Terminal Aerodrome Forecast
Issued by NWS

Home | Current Version | Previous Version | Graphics & Text | Print | Product List | Glossary On
Versions: 1 2 3 4 5 6 7 8 9 10 11 12 13 14 15 16 17 18 19
000
FTUS43 KICT 150539
TAFCNU
TAF
KCNU 150539Z 1506/1606 05005KT 5SM -FZRA BR OVC008
      TEMPO 1506/1510 2SM FZRA BR OVC006
     FM151000 04005KT 4SM -FZDZ BR OVC006
     FM151500 06005KT 5SM -DZ BR OVC006
     FM151800 06005KT 6SM BR OVC008=

USA.gov is the U.S. government's official web portal to all federal, state and local government web resources and services.